createdAt,value
2018-08-13T00:00:33.112Z,9.97
2018-08-13T00:03:03.304Z,10.13
2018-08-13T00:05:33.431Z,10.80
2018-08-13T00:08:03.596Z,11.17
2018-08-13T00:10:33.695Z,10.53
2018-08-13T00:13:03.868Z,9.67
2018-08-13T00:15:33.995Z,10.47
2018-08-13T00:18:04.283Z,10.20
2018-08-13T00:20:34.431Z,11.57
2018-08-13T00:23:04.587Z,10.67
2018-08-13T00:25:35.012Z,11.23
2018-08-13T00:28:06.556Z,11.73
2018-08-13T00:30:36.891Z,13.07
2018-08-13T00:33:08.788Z,10.37
2018-08-13T00:35:39.039Z,10.47
2018-08-13T00:38:09.236Z,9.97
2018-08-13T00:40:39.420Z,11.97
2018-08-13T00:43:09.639Z,13.73
2018-08-13T00:45:39.805Z,13.70
2018-08-13T00:48:09.943Z,11.67
2018-08-13T00:50:40.073Z,11.80
2018-08-13T00:53:10.571Z,11.83
2018-08-13T00:55:40.679Z,10.60
2018-08-13T00:58:10.787Z,11.97
2018-08-13T01:00:40.978Z,10.57
2018-08-13T01:03:11.116Z,10.80
2018-08-13T01:05:41.302Z,12.67
2018-08-13T01:08:11.448Z,10.47
2018-08-13T01:10:41.640Z,10.50
2018-08-13T01:13:11.812Z,11.87
2018-08-13T01:15:41.990Z,10.33
2018-08-13T01:18:12.130Z,10.93
2018-08-13T01:20:42.236Z,10.47
2018-08-13T01:23:12.406Z,12.23
2018-08-13T01:25:42.543Z,11.40
2018-08-13T01:28:12.652Z,11.93
2018-08-13T01:30:42.793Z,13.97
2018-08-13T01:33:12.924Z,11.77
2018-08-13T01:35:43.036Z,11.67
2018-08-13T01:38:13.120Z,11.50
2018-08-13T01:40:43.227Z,12.23
2018-08-13T01:43:13.358Z,11.53
2018-08-13T01:45:43.465Z,11.60
2018-08-13T01:48:13.588Z,11.83
2018-08-13T01:50:44.048Z,10.70
2018-08-13T01:53:14.155Z,13.13
2018-08-13T01:55:44.303Z,10.57
2018-08-13T01:58:14.415Z,12.43
2018-08-13T02:00:44.913Z,12.17
2018-08-13T02:03:14.991Z,11.73
2018-08-13T02:05:45.156Z,16.13
2018-08-13T02:08:15.264Z,13.20
2018-08-13T02:10:45.382Z,11.13
2018-08-13T02:13:15.560Z,11.73
2018-08-13T02:15:45.698Z,12.80
2018-08-13T02:18:17.592Z,12.53
2018-08-13T02:20:47.700Z,12.53
2018-08-13T02:23:17.835Z,11.80
2018-08-13T02:25:47.996Z,13.83
2018-08-13T02:28:18.164Z,11.93
2018-08-13T02:30:48.307Z,12.70
2018-08-13T02:33:18.494Z,11.50
2018-08-13T02:35:48.647Z,12.83
2018-08-13T02:38:18.768Z,10.93
2018-08-13T02:40:48.920Z,11.67
2018-08-13T02:43:19.043Z,11.40
2018-08-13T02:45:49.160Z,12.03
2018-08-13T02:48:23.692Z,12.57
2018-08-13T02:50:53.844Z,15.17
2018-08-13T02:53:23.936Z,11.40
2018-08-13T02:55:54.084Z,11.50
2018-08-13T02:58:24.168Z,13.83
2018-08-13T03:00:54.406Z,12.10
2018-08-13T03:03:24.575Z,11.87
2018-08-13T03:05:54.677Z,11.90
2018-08-13T03:08:24.781Z,12.10
2018-08-13T03:10:54.885Z,10.13
2018-08-13T03:13:25.017Z,11.67
2018-08-13T03:15:55.140Z,12.10
2018-08-13T03:18:25.267Z,11.87
2018-08-13T03:20:55.408Z,14.10
2018-08-13T03:23:25.508Z,11.80
2018-08-13T03:25:55.692Z,13.70
2018-08-13T03:28:25.838Z,11.07
2018-08-13T03:30:56.206Z,11.23
2018-08-13T03:33:26.357Z,12.57
2018-08-13T03:35:56.508Z,13.37
2018-08-13T03:38:26.692Z,12.53
2018-08-13T03:40:56.812Z,12.23
2018-08-13T03:43:27.000Z,13.73
2018-08-13T03:45:57.109Z,13.80
2018-08-13T03:48:27.232Z,11.10
2018-08-13T03:50:57.365Z,12.03
2018-08-13T03:53:27.593Z,11.90
2018-08-13T03:55:57.766Z,11.13
2018-08-13T03:58:27.934Z,12.47
2018-08-13T04:00:58.089Z,12.20
2018-08-13T04:03:28.220Z,12.93
2018-08-13T04:05:58.425Z,11.37
2018-08-13T04:08:28.657Z,12.33
2018-08-13T04:10:58.825Z,14.37
2018-08-13T04:13:29.029Z,11.80
2018-08-13T04:15:59.227Z,12.00
2018-08-13T04:18:29.373Z,13.10
2018-08-13T04:20:59.544Z,12.37
2018-08-13T04:23:29.728Z,13.87
2018-08-13T04:25:59.891Z,12.67
2018-08-13T04:28:30.048Z,11.13
2018-08-13T04:31:00.172Z,11.57
2018-08-13T04:33:30.321Z,11.27
2018-08-13T04:36:00.490Z,12.20
2018-08-13T04:38:30.688Z,9.93
2018-08-13T04:41:00.761Z,12.70
2018-08-13T04:43:30.868Z,10.83
2018-08-13T04:46:00.990Z,9.37
2018-08-13T04:48:31.173Z,10.03
2018-08-13T04:51:01.335Z,9.20
2018-08-13T04:53:31.472Z,11.33
2018-08-13T04:56:01.613Z,13.53
2018-08-13T04:58:31.740Z,12.80
2018-08-13T05:01:01.908Z,9.57
2018-08-13T05:03:31.993Z,9.37
2018-08-13T05:06:02.246Z,7.50
2018-08-13T05:08:32.408Z,8.30
2018-08-13T05:11:03.430Z,10.90
2018-08-13T05:13:33.560Z,7.80
2018-08-13T05:16:03.731Z,11.83
2018-08-13T05:18:34.819Z,7.77
2018-08-13T05:21:05.232Z,8.57
2018-08-13T05:23:35.389Z,9.30
2018-08-13T05:26:05.548Z,21.27
2018-08-13T05:28:35.802Z,10.93
2018-08-13T05:31:05.957Z,60.50
2018-08-13T05:33:36.125Z,43.57
2018-08-13T05:36:06.552Z,17.37
2018-08-13T05:38:36.722Z,10.67
2018-08-13T05:41:06.942Z,11.10
2018-08-13T05:43:37.199Z,23.07
2018-08-13T05:46:07.373Z,56.43
2018-08-13T05:48:37.511Z,13.17
2018-08-13T05:51:07.749Z,9.07
2018-08-13T05:53:37.971Z,10.03
2018-08-13T05:56:08.204Z,10.53
2018-08-13T05:58:38.401Z,8.50
2018-08-13T06:01:08.993Z,10.27
2018-08-13T06:03:39.201Z,9.47
2018-08-13T06:06:09.337Z,9.27
2018-08-13T06:08:39.500Z,8.40
2018-08-13T06:11:09.688Z,8.17
2018-08-13T06:13:39.798Z,8.60
2018-08-13T06:16:09.921Z,8.27
2018-08-13T06:18:40.091Z,7.47
2018-08-13T06:21:10.317Z,8.27
2018-08-13T06:23:40.521Z,9.23
2018-08-13T06:26:11.485Z,9.57
2018-08-13T06:28:41.658Z,7.90
2018-08-13T06:31:11.909Z,8.53
2018-08-13T06:33:42.138Z,7.97
2018-08-13T06:36:12.388Z,8.43
2018-08-13T06:38:42.517Z,9.23
2018-08-13T06:41:12.711Z,10.43
2018-08-13T06:43:43.007Z,8.83
2018-08-13T06:46:13.324Z,12.00
2018-08-13T06:48:43.520Z,9.60
2018-08-13T06:51:13.744Z,10.80
2018-08-13T06:53:43.886Z,9.70
2018-08-13T06:56:14.030Z,10.70
2018-08-13T06:58:44.169Z,8.43
2018-08-13T07:01:14.364Z,9.80
2018-08-13T07:03:44.600Z,8.43
2018-08-13T07:06:16.236Z,10.73
2018-08-13T07:08:46.380Z,8.87
2018-08-13T07:11:16.535Z,10.27
2018-08-13T07:13:46.710Z,9.13
2018-08-13T07:16:16.912Z,9.17
2018-08-13T07:18:47.091Z,9.67
2018-08-13T07:21:17.239Z,9.97
2018-08-13T07:23:47.437Z,9.53
2018-08-13T07:26:17.574Z,8.43
2018-08-13T07:28:54.522Z,8.47
2018-08-13T07:31:24.665Z,12.37
2018-08-13T07:33:55.174Z,31.33
2018-08-13T07:36:25.311Z,16.27
2018-08-13T07:38:55.542Z,10.33
2018-08-13T07:41:25.716Z,11.03
2018-08-13T07:43:55.926Z,23.33
2018-08-13T07:46:26.146Z,15.23
2018-08-13T07:48:56.428Z,11.57
2018-08-13T07:51:26.576Z,14.97
2018-08-13T07:53:56.696Z,13.43
2018-08-13T07:56:26.929Z,22.10
2018-08-13T07:58:57.135Z,13.80
2018-08-13T08:01:27.395Z,15.73
2018-08-13T08:03:57.556Z,15.40
2018-08-13T08:06:27.725Z,13.10
2018-08-13T08:08:57.882Z,9.50
2018-08-13T08:11:28.084Z,9.93
2018-08-13T08:13:58.289Z,8.87
2018-08-13T08:16:28.499Z,10.10
2018-08-13T08:18:58.630Z,21.52
2018-08-13T08:21:28.868Z,23.12
2018-08-13T08:23:58.970Z,11.00
2018-08-13T08:26:29.209Z,8.43
2018-08-13T08:28:59.367Z,9.45
2018-08-13T08:31:29.620Z,23.85
2018-08-13T08:33:59.782Z,23.67
2018-08-13T08:36:30.253Z,8.20
2018-08-13T08:39:00.428Z,9.75
2018-08-13T08:41:30.600Z,15.60
2018-08-13T08:44:00.765Z,56.85
2018-08-13T08:46:30.944Z,19.23
2018-08-13T08:49:01.224Z,11.00
2018-08-13T08:51:31.377Z,13.25
2018-08-13T08:54:01.528Z,15.72
2018-08-13T08:56:31.737Z,10.60
2018-08-13T08:59:01.957Z,13.03
2018-08-13T09:01:32.258Z,10.32
2018-08-13T09:04:02.540Z,10.03
2018-08-13T09:06:32.728Z,15.60
2018-08-13T09:09:02.937Z,10.13
2018-08-13T09:11:33.088Z,9.00
2018-08-13T09:14:03.427Z,11.73
2018-08-13T09:16:33.743Z,17.45
2018-08-13T09:19:20.710Z,19.23
2018-08-13T09:21:54.533Z,10.20
2018-08-13T09:24:41.504Z,8.80
2018-08-13T09:27:28.522Z,16.87
2018-08-13T09:30:15.601Z,15.97
2018-08-13T09:34:04.416Z,12.18
2018-08-13T09:36:34.662Z,11.67
2018-08-13T09:39:09.492Z,10.30
2018-08-13T09:41:39.649Z,11.00
2018-08-13T09:44:09.796Z,10.65
2018-08-13T09:46:39.953Z,8.43
2018-08-13T09:49:10.118Z,8.58
2018-08-13T09:51:40.282Z,8.70
2018-08-13T09:54:10.599Z,8.50
2018-08-13T09:56:40.705Z,8.10
2018-08-13T09:59:10.849Z,8.33
2018-08-13T10:01:40.996Z,8.03
2018-08-13T10:04:11.136Z,8.90
2018-08-13T10:06:41.275Z,9.53
2018-08-13T10:09:11.526Z,9.10
2018-08-13T10:11:41.649Z,9.13
2018-08-13T10:14:11.776Z,11.20
2018-08-13T10:16:42.159Z,13.70
2018-08-13T10:19:12.257Z,12.17
2018-08-13T10:21:42.396Z,8.90
2018-08-13T10:24:12.542Z,8.87
2018-08-13T10:26:42.647Z,9.40
2018-08-13T10:29:12.749Z,8.63
2018-08-13T10:31:42.876Z,8.30
2018-08-13T10:34:13.054Z,8.60
2018-08-13T10:36:43.213Z,8.40
2018-08-13T10:39:13.772Z,7.87
2018-08-13T10:41:43.999Z,8.03
2018-08-13T10:44:14.165Z,9.87
2018-08-13T10:46:44.365Z,7.70
2018-08-13T10:49:14.512Z,7.80
2018-08-13T10:51:44.714Z,8.20
2018-08-13T10:54:14.845Z,8.10
2018-08-13T10:56:44.996Z,8.03
2018-08-13T10:59:15.201Z,7.43
2018-08-13T11:01:45.301Z,8.30
2018-08-13T11:04:15.596Z,8.50
2018-08-13T11:06:45.748Z,8.17
2018-08-13T11:09:15.948Z,7.97
2018-08-13T11:11:46.108Z,8.03
2018-08-13T11:14:16.219Z,8.03
2018-08-13T11:16:46.373Z,7.70
2018-08-13T11:19:16.677Z,7.93
2018-08-13T11:21:46.920Z,8.50
2018-08-13T11:24:16.976Z,8.40
2018-08-13T11:26:47.116Z,8.97
2018-08-13T11:29:17.293Z,8.17
2018-08-13T11:31:47.436Z,7.67
2018-08-13T11:34:17.572Z,8.00
2018-08-13T11:36:47.719Z,7.97
2018-08-13T11:39:17.868Z,8.23
2018-08-13T11:41:47.985Z,8.43
2018-08-13T11:44:18.168Z,8.50
2018-08-13T11:46:48.323Z,8.43
2018-08-13T11:49:18.475Z,8.93
2018-08-13T11:51:48.649Z,8.60
2018-08-13T11:54:18.799Z,8.33
2018-08-13T11:56:48.972Z,8.00
2018-08-13T11:59:24.841Z,8.23
2018-08-13T12:01:55.025Z,8.20
2018-08-13T12:04:25.096Z,8.03
2018-08-13T12:06:55.260Z,8.67
2018-08-13T12:09:25.364Z,8.17
2018-08-13T12:11:55.605Z,8.03
2018-08-13T12:14:25.736Z,8.50
2018-08-13T12:16:55.892Z,8.17
2018-08-13T12:19:26.106Z,8.90
2018-08-13T12:21:56.236Z,9.47
2018-08-13T12:24:26.422Z,8.23
2018-08-13T12:26:56.569Z,7.87
2018-08-13T12:29:26.684Z,7.83
2018-08-13T12:31:56.805Z,8.47
2018-08-13T12:34:26.913Z,8.47
2018-08-13T12:37:02.444Z,10.53
2018-08-13T12:39:33.058Z,13.53
2018-08-13T12:42:03.324Z,8.23
2018-08-13T12:44:33.467Z,10.27
2018-08-13T12:47:03.656Z,19.23
2018-08-13T12:49:34.001Z,9.30
2018-08-13T12:52:04.325Z,11.60
2018-08-13T12:54:34.502Z,10.50
2018-08-13T12:57:05.075Z,13.20
2018-08-13T12:59:35.215Z,13.70
2018-08-13T13:02:05.363Z,15.03
2018-08-13T13:04:35.568Z,9.40
2018-08-13T13:07:05.828Z,8.57
2018-08-13T13:09:36.136Z,8.93
2018-08-13T13:12:06.358Z,8.67
2018-08-13T13:14:36.622Z,8.77
2018-08-13T13:17:06.765Z,8.87
2018-08-13T13:19:36.912Z,9.17
2018-08-13T13:22:07.056Z,8.43
2018-08-13T13:24:37.201Z,7.83
2018-08-13T13:27:07.388Z,8.03
2018-08-13T13:29:37.541Z,7.80
2018-08-13T13:32:07.800Z,8.90
2018-08-13T13:34:37.976Z,9.00
2018-08-13T13:37:08.255Z,8.00
2018-08-13T13:39:38.360Z,8.43
2018-08-13T13:42:08.641Z,8.70
2018-08-13T13:44:38.811Z,7.93
2018-08-13T13:47:08.957Z,8.43
2018-08-13T13:49:39.110Z,8.23
2018-08-13T13:52:09.308Z,8.75
2018-08-13T13:54:39.417Z,8.10
2018-08-13T13:57:09.767Z,11.87
2018-08-13T13:59:39.872Z,10.47
2018-08-13T14:02:10.069Z,9.30
2018-08-13T14:04:40.196Z,8.25
2018-08-13T14:07:10.411Z,8.93
2018-08-13T14:09:40.579Z,9.93
2018-08-13T14:12:10.708Z,9.00
2018-08-13T14:14:40.840Z,8.20
2018-08-13T14:17:10.976Z,9.20
2018-08-13T14:19:41.112Z,9.00
2018-08-13T14:22:11.264Z,9.03
2018-08-13T14:24:41.407Z,9.80
2018-08-13T14:27:11.595Z,9.05
2018-08-13T14:29:41.800Z,10.00
2018-08-13T14:32:11.912Z,9.60
2018-08-13T14:34:42.136Z,9.38
2018-08-13T14:37:12.225Z,9.10
2018-08-13T14:39:42.361Z,9.65
2018-08-13T14:42:12.591Z,9.45
2018-08-13T14:44:42.691Z,10.13
2018-08-13T14:47:12.830Z,9.60
2018-08-13T14:49:42.955Z,9.45
2018-08-13T14:52:13.149Z,9.35
2018-08-13T14:54:43.268Z,9.55
2018-08-13T14:57:13.456Z,8.90
2018-08-13T14:59:43.612Z,9.80
2018-08-13T15:02:13.732Z,9.25
2018-08-13T15:04:43.960Z,10.23
2018-08-13T15:07:14.097Z,9.78
2018-08-13T15:09:44.225Z,9.23
2018-08-13T15:12:14.428Z,12.10
2018-08-13T15:14:44.517Z,14.60
2018-08-13T15:17:14.704Z,10.40
2018-08-13T15:19:44.864Z,9.63
2018-08-13T15:22:15.060Z,9.40
2018-08-13T15:24:45.184Z,10.17
2018-08-13T15:27:15.421Z,9.85
2018-08-13T15:29:45.483Z,9.63
2018-08-13T15:32:15.621Z,9.90
2018-08-13T15:34:45.744Z,10.27
2018-08-13T15:37:15.844Z,10.25
2018-08-13T15:39:46.028Z,9.97
2018-08-13T15:42:16.165Z,9.75
2018-08-13T15:44:46.274Z,10.35
2018-08-13T15:47:16.417Z,9.70
2018-08-13T15:49:46.549Z,9.80
2018-08-13T15:52:16.692Z,11.17
2018-08-13T15:54:46.861Z,10.50
2018-08-13T15:57:16.975Z,9.97
2018-08-13T15:59:47.140Z,9.70
2018-08-13T16:02:17.305Z,9.70
2018-08-13T16:04:47.495Z,10.17
2018-08-13T16:07:17.609Z,9.77
2018-08-13T16:09:47.777Z,9.73
2018-08-13T16:12:17.900Z,10.37
2018-08-13T16:14:49.088Z,10.20
2018-08-13T16:17:19.443Z,10.60
2018-08-13T16:19:49.615Z,9.60
2018-08-13T16:22:19.889Z,9.43
2018-08-13T16:24:50.025Z,10.10
2018-08-13T16:27:20.169Z,10.30
2018-08-13T16:29:50.752Z,10.15
2018-08-13T16:32:20.893Z,10.03
2018-08-13T16:34:51.448Z,11.35
2018-08-13T16:37:21.901Z,9.90
2018-08-13T16:39:52.022Z,9.70
2018-08-13T16:42:22.168Z,10.50
2018-08-13T16:44:52.564Z,10.28
2018-08-13T16:47:22.717Z,10.93
2018-08-13T16:49:52.832Z,30.10
2018-08-13T16:52:23.209Z,25.40
2018-08-13T16:54:53.404Z,13.10
2018-08-13T16:57:23.533Z,34.37
2018-08-13T16:59:53.677Z,156.47
2018-08-13T17:02:24.040Z,43.90
2018-08-13T17:04:54.290Z,29.43
2018-08-13T17:07:24.527Z,20.57
2018-08-13T17:09:54.676Z,14.40
2018-08-13T17:12:25.093Z,28.60
2018-08-13T17:14:55.544Z,31.77
2018-08-13T17:17:25.721Z,33.93
2018-08-13T17:19:56.233Z,63.17
2018-08-13T17:22:26.537Z,43.93
2018-08-13T17:24:56.715Z,27.20
2018-08-13T17:27:27.005Z,22.70
2018-08-13T17:29:57.289Z,26.37
2018-08-13T17:32:27.494Z,78.07
2018-08-13T17:34:57.662Z,30.47
2018-08-13T17:37:27.831Z,35.37
2018-08-13T17:39:57.997Z,102.57
2018-08-13T17:42:28.382Z,101.97
2018-08-13T17:44:58.509Z,85.37
2018-08-13T17:47:28.793Z,30.53
2018-08-13T17:49:59.001Z,15.90
2018-08-13T17:52:29.229Z,13.80
2018-08-13T17:54:59.600Z,24.80
2018-08-13T17:57:29.803Z,65.17
2018-08-13T18:00:00.157Z,94.73
2018-08-13T18:02:30.753Z,25.93
2018-08-13T18:05:00.858Z,26.43
2018-08-13T18:07:31.113Z,23.63
2018-08-13T18:10:01.249Z,60.57
2018-08-13T18:12:31.432Z,48.77
2018-08-13T18:15:01.822Z,29.77
2018-08-13T18:17:31.998Z,15.67
2018-08-13T18:20:02.161Z,24.00
2018-08-13T18:22:32.337Z,19.67
2018-08-13T18:25:02.887Z,36.50
2018-08-13T18:27:33.004Z,37.83
2018-08-13T18:30:03.573Z,17.50
2018-08-13T18:32:34.120Z,30.47
2018-08-13T18:35:04.912Z,18.97
2018-08-13T18:37:35.642Z,27.03
2018-08-13T18:40:10.687Z,19.73
2018-08-13T19:01:26.027Z,18.60
2018-08-13T19:04:02.486Z,17.93
2018-08-13T19:06:38.288Z,20.47
2018-08-13T19:09:14.084Z,36.63
2018-08-13T19:11:50.383Z,110.87
2018-08-13T19:14:25.972Z,415.70
2018-08-13T19:17:01.581Z,294.27
2018-08-13T19:19:31.948Z,191.77
2018-08-13T19:22:02.449Z,67.80
2018-08-13T19:24:32.747Z,154.37
2018-08-13T19:27:03.179Z,24.13
2018-08-13T19:29:33.389Z,147.77
2018-08-13T19:32:03.604Z,107.30
2018-08-13T19:34:33.749Z,64.17
2018-08-13T19:37:03.981Z,73.07
2018-08-13T19:39:34.153Z,57.23
2018-08-13T19:42:04.492Z,58.67
2018-08-13T19:44:34.811Z,71.13
2018-08-13T19:47:05.758Z,55.93
2018-08-13T19:49:35.965Z,32.87
2018-08-13T19:52:07.190Z,24.87
2018-08-13T19:54:37.781Z,38.80
2018-08-13T19:57:10.919Z,27.90
2018-08-13T19:59:41.068Z,27.43
2018-08-13T20:02:11.427Z,28.40
2018-08-13T20:04:41.719Z,21.23
2018-08-13T20:07:11.854Z,21.30
2018-08-13T20:09:42.291Z,22.67
2018-08-13T20:12:12.533Z,19.07
2018-08-13T20:14:42.668Z,18.50
2018-08-13T20:17:12.829Z,20.73
2018-08-13T20:19:43.076Z,18.30
2018-08-13T20:22:15.600Z,51.53
2018-08-13T20:24:45.795Z,50.43
2018-08-13T20:27:15.921Z,24.60
2018-08-13T20:29:46.081Z,26.80
2018-08-13T20:32:16.242Z,69.30
2018-08-13T20:34:46.384Z,26.10
2018-08-13T20:37:16.545Z,20.10
2018-08-13T20:39:46.693Z,21.37
2018-08-13T20:42:16.881Z,21.73
2018-08-13T20:44:47.062Z,22.37
2018-08-13T20:47:17.241Z,19.60
2018-08-13T20:49:47.424Z,20.20
2018-08-13T20:52:17.600Z,18.23
2018-08-13T20:54:47.752Z,20.27
2018-08-13T20:57:17.884Z,18.83
2018-08-13T20:59:48.060Z,18.37
2018-08-13T21:02:18.468Z,17.80
2018-08-13T21:04:48.664Z,18.87
2018-08-13T21:07:18.821Z,20.07
2018-08-13T21:09:49.074Z,17.80
2018-08-13T21:12:19.196Z,17.70
2018-08-13T21:14:49.441Z,17.90
2018-08-13T21:17:19.628Z,17.37
2018-08-13T21:19:49.809Z,17.63
2018-08-13T21:22:19.960Z,17.97
2018-08-13T21:24:50.073Z,18.90
2018-08-13T21:27:20.224Z,19.30
2018-08-13T21:29:50.448Z,18.23
2018-08-13T21:32:20.669Z,18.33
2018-08-13T21:34:50.900Z,18.43
2018-08-13T21:37:21.100Z,17.37
2018-08-13T21:39:51.221Z,17.03
2018-08-13T21:42:21.393Z,26.23
2018-08-13T21:44:51.514Z,91.37
2018-08-13T21:47:21.648Z,19.50
2018-08-13T21:49:51.808Z,19.27
2018-08-13T21:52:22.024Z,17.43
2018-08-13T21:54:52.272Z,19.60
2018-08-13T21:57:24.660Z,18.47
2018-08-13T21:59:55.924Z,18.53
2018-08-13T22:02:26.052Z,16.27
2018-08-13T22:04:56.238Z,18.73
2018-08-13T22:07:26.700Z,17.20
2018-08-13T22:09:56.838Z,17.07
2018-08-13T22:12:27.024Z,15.30
2018-08-13T22:14:57.245Z,16.77
2018-08-13T22:17:34.045Z,16.30
2018-08-13T22:20:04.476Z,16.17
2018-08-13T22:22:34.607Z,16.50
2018-08-13T22:25:06.314Z,16.90
2018-08-13T22:27:36.473Z,25.67
2018-08-13T22:30:08.920Z,43.77
2018-08-13T22:32:39.145Z,18.63
2018-08-13T22:35:10.821Z,15.57
2018-08-13T22:37:41.871Z,16.27
2018-08-13T22:40:17.657Z,17.33
2018-08-13T22:42:47.901Z,16.47
2018-08-13T22:45:23.028Z,16.17
2018-08-13T22:47:53.199Z,14.77
2018-08-13T22:50:23.404Z,15.57
2018-08-13T22:52:53.561Z,15.23
2018-08-13T22:55:23.748Z,15.43
2018-08-13T22:57:53.931Z,14.10
2018-08-13T23:00:24.776Z,14.57
2018-08-13T23:02:54.997Z,14.60
2018-08-13T23:05:26.737Z,12.93
2018-08-13T23:07:56.912Z,14.83
2018-08-13T23:10:27.047Z,13.93
2018-08-13T23:12:57.567Z,13.30
2018-08-13T23:15:27.700Z,13.90
2018-08-13T23:17:57.844Z,12.97
2018-08-13T23:20:29.526Z,13.37
2018-08-13T23:23:00.837Z,12.63
2018-08-13T23:25:32.176Z,12.53
2018-08-13T23:28:04.026Z,13.17
2018-08-13T23:30:34.953Z,13.23
2018-08-13T23:33:06.787Z,12.17
2018-08-13T23:35:37.024Z,11.97
2018-08-13T23:38:08.460Z,12.97
2018-08-13T23:40:38.644Z,13.93
2018-08-13T23:43:08.832Z,32.17
2018-08-13T23:45:39.104Z,23.90
2018-08-13T23:48:09.268Z,20.63
2018-08-13T23:50:39.467Z,14.87
2018-08-13T23:53:09.676Z,18.13
2018-08-13T23:55:40.572Z,17.47
2018-08-13T23:58:13.536Z,16.03
